Yates Center, Kansas
Current Conditions -  °F | °C
As of 12:45 PM on Sunday 23 Nov 2014 (Local Time) from KCNU Reporting Station
Light Rain Light Rain  
Wind Chill: 57°   Ceiling: 1900
Heat Index: 57°   Visibility: 4mi
Dew Point: 56°   Wind: 5mph
Humidity: 96%   Direction: 260°W
Pressure: 29.37"   Gusts: NA
Location:  37.88°N, 95.73°W
Report Text: KCNU 231845Z AUTO 26004KT 4SM -RA BR FEW008 BKN019 OVC033 14/13 A2937 RMK AO2 RAB11 P0002 T01390133
Loading
Personal Weather Stations






























Interactive Weather Map New forecast layout! Learn more

10-Day Weather Forecast

Advertisements
Track Severe Weather on mobile